createdAt,value
2024-03-07T00:00:45.765Z,-0.26
2024-03-07T00:03:13.050Z,-0.32
2024-03-07T00:05:41.037Z,-0.40
2024-03-07T00:08:08.517Z,-0.44
2024-03-07T00:10:37.501Z,-0.47
2024-03-07T00:13:05.139Z,-0.51
2024-03-07T00:15:32.488Z,-0.56
2024-03-07T00:18:01.473Z,-0.59
2024-03-07T00:20:28.811Z,-0.59
2024-03-07T00:22:56.103Z,-0.59
2024-03-07T00:25:23.603Z,-0.60
2024-03-07T00:27:54.256Z,-0.58
2024-03-07T00:30:21.708Z,-0.56
2024-03-07T00:32:49.481Z,-0.56
2024-03-07T00:35:17.461Z,-0.55
2024-03-07T00:37:45.559Z,-0.53
2024-03-07T00:40:12.927Z,-0.50
2024-03-07T00:42:40.190Z,-0.49
2024-03-07T00:45:07.706Z,-0.50
2024-03-07T00:47:35.274Z,-0.55
2024-03-07T00:50:02.832Z,-0.57
2024-03-07T00:52:30.385Z,-0.59
2024-03-07T00:54:57.594Z,-0.64
2024-03-07T00:57:24.936Z,-0.69
2024-03-07T00:59:52.306Z,-0.71
2024-03-07T01:02:19.848Z,-0.68
2024-03-07T01:04:47.214Z,-0.67
2024-03-07T01:07:14.478Z,-0.70
2024-03-07T01:09:41.962Z,-0.70
2024-03-07T01:12:11.378Z,-0.67
2024-03-07T01:14:38.903Z,-0.60
2024-03-07T01:17:09.172Z,-0.52
2024-03-07T01:19:36.717Z,-0.48
2024-03-07T01:22:04.014Z,-0.49
2024-03-07T01:24:31.443Z,-0.51
2024-03-07T01:27:01.106Z,-0.52
2024-03-07T01:29:29.123Z,-0.51
2024-03-07T01:31:56.523Z,-0.51
2024-03-07T01:34:23.759Z,-0.50
2024-03-07T01:36:51.020Z,-0.50
2024-03-07T01:39:19.130Z,-0.54
2024-03-07T01:41:46.463Z,-0.56
2024-03-07T01:44:13.747Z,-0.57
2024-03-07T01:46:42.905Z,-0.59
2024-03-07T01:49:10.200Z,-0.61
2024-03-07T01:51:37.527Z,-0.61
2024-03-07T01:54:05.066Z,-0.62
2024-03-07T01:56:32.558Z,-0.62
2024-03-07T01:59:00.182Z,-0.60
2024-03-07T02:01:27.660Z,-0.59
2024-03-07T02:03:55.188Z,-0.60
2024-03-07T02:06:22.450Z,-0.60
2024-03-07T02:08:49.743Z,-0.58
2024-03-07T02:11:17.142Z,-0.57
2024-03-07T02:13:44.529Z,-0.60
2024-03-07T02:16:12.197Z,-0.65
2024-03-07T02:18:39.585Z,-0.69
2024-03-07T02:21:08.595Z,-0.71
2024-03-07T02:23:36.142Z,-0.75
2024-03-07T02:26:04.287Z,-0.76
2024-03-07T02:28:31.549Z,-0.75
2024-03-07T02:30:58.823Z,-0.77
2024-03-07T02:33:26.869Z,-0.77
2024-03-07T02:35:54.401Z,-0.78
2024-03-07T02:38:21.901Z,-0.83
2024-03-07T02:40:49.533Z,-0.86
2024-03-07T02:43:17.187Z,-0.86
2024-03-07T02:45:44.477Z,-0.86
2024-03-07T02:48:12.324Z,-0.86
2024-03-07T02:50:40.000Z,-0.87
2024-03-07T02:53:08.258Z,-0.88
2024-03-07T02:55:35.608Z,-0.85
2024-03-07T02:58:02.993Z,-0.83
2024-03-07T03:00:33.322Z,-0.79
2024-03-07T03:03:00.689Z,-0.76
2024-03-07T03:05:28.064Z,-0.73
2024-03-07T03:07:55.899Z,-0.73
2024-03-07T03:10:30.836Z,-0.73
2024-03-07T03:13:00.520Z,-0.71
2024-03-07T03:15:28.461Z,-0.69
2024-03-07T03:17:55.841Z,-0.71
2024-03-07T03:20:26.466Z,-0.73
2024-03-07T03:23:07.612Z,-0.76
2024-03-07T03:25:42.701Z,-0.78
2024-03-07T03:28:11.114Z,-0.81
2024-03-07T03:30:39.485Z,-0.88
2024-03-07T03:33:07.512Z,-0.92
2024-03-07T03:35:35.518Z,-0.95
2024-03-07T03:38:02.955Z,-0.96
2024-03-07T03:40:30.340Z,-0.97
2024-03-07T03:42:57.755Z,-0.99
2024-03-07T03:45:26.461Z,-1.02
2024-03-07T03:47:54.186Z,-1.03
2024-03-07T03:50:24.298Z,-1.00
2024-03-07T03:52:51.778Z,-0.97
2024-03-07T03:55:19.171Z,-0.93
2024-03-07T03:59:45.623Z,-0.86
2024-03-07T04:02:13.435Z,-0.85
2024-03-07T04:04:41.334Z,-0.80
2024-03-07T04:07:08.594Z,-0.76
2024-03-07T04:09:35.913Z,-0.75
2024-03-07T04:12:03.326Z,-0.80
2024-03-07T04:14:34.098Z,-0.82
2024-03-07T04:17:01.408Z,-0.83
2024-03-07T04:19:28.943Z,-0.83
2024-03-07T04:21:56.186Z,-0.87
2024-03-07T04:24:23.446Z,-0.94
2024-03-07T04:26:50.747Z,-0.99
2024-03-07T04:29:18.817Z,-1.03
2024-03-07T04:31:46.627Z,-1.05
2024-03-07T04:34:14.245Z,-1.03
2024-03-07T04:36:42.759Z,-1.03
2024-03-07T04:39:23.568Z,-1.03
2024-03-07T04:41:56.110Z,-1.00
2024-03-07T04:44:26.302Z,-0.96
2024-03-07T04:46:57.848Z,-0.90
2024-03-07T04:49:25.850Z,-0.86
2024-03-07T04:51:56.978Z,-0.81
2024-03-07T04:54:24.784Z,-0.78
2024-03-07T04:56:52.814Z,-0.73
2024-03-07T04:59:21.016Z,-0.74
2024-03-07T05:01:48.978Z,-0.75
2024-03-07T05:04:16.698Z,-0.76
2024-03-07T05:06:44.595Z,-0.81
2024-03-07T05:09:23.986Z,-0.86
2024-03-07T05:11:54.645Z,-0.95
2024-03-07T05:14:23.293Z,-1.00
2024-03-07T05:17:06.021Z,-1.03
2024-03-07T05:19:34.319Z,-1.04
2024-03-07T05:22:02.390Z,-1.04
2024-03-07T05:24:29.694Z,-1.03
2024-03-07T05:26:58.027Z,-1.00
2024-03-07T05:29:25.407Z,-0.98
2024-03-07T05:31:52.802Z,-0.94
2024-03-07T05:34:20.585Z,-0.88
2024-03-07T05:36:48.330Z,-0.81
2024-03-07T05:39:16.847Z,-0.78
2024-03-07T05:41:46.805Z,-0.78
2024-03-07T05:44:14.383Z,-0.79
2024-03-07T05:46:43.299Z,-0.79
2024-03-07T05:49:10.588Z,-0.79
2024-03-07T05:51:37.817Z,-0.78
2024-03-07T05:54:07.929Z,-0.79
2024-03-07T05:56:38.249Z,-0.81
2024-03-07T05:59:05.658Z,-0.81
2024-03-07T06:01:34.036Z,-0.79
2024-03-07T06:04:01.880Z,-0.76
2024-03-07T06:06:29.739Z,-0.78
2024-03-07T06:08:57.857Z,-0.80
2024-03-07T06:11:25.368Z,-0.84
2024-03-07T06:13:52.672Z,-0.85
2024-03-07T06:16:21.495Z,-0.85
2024-03-07T06:18:48.998Z,-0.87
2024-03-07T06:21:17.089Z,-0.84
2024-03-07T06:23:44.763Z,-0.77
2024-03-07T06:26:18.048Z,-0.69
2024-03-07T06:28:46.606Z,-0.65
2024-03-07T06:31:13.896Z,-0.65
2024-03-07T06:33:41.220Z,-0.64
2024-03-07T06:36:10.395Z,-0.65
2024-03-07T06:38:37.839Z,-0.64
2024-03-07T06:41:06.180Z,-0.66
2024-03-07T06:43:33.572Z,-0.66
2024-03-07T06:46:00.812Z,-0.68
2024-03-07T06:48:29.158Z,-0.71
2024-03-07T06:50:56.759Z,-0.73
2024-03-07T06:53:27.475Z,-0.75
2024-03-07T06:55:54.894Z,-0.79
2024-03-07T06:58:22.357Z,-0.84
2024-03-07T07:00:53.140Z,-0.90
2024-03-07T07:03:21.314Z,-0.97
2024-03-07T07:05:48.689Z,-1.01
2024-03-07T07:08:17.127Z,-1.02
2024-03-07T07:10:44.504Z,-1.02
2024-03-07T07:13:12.045Z,-0.98
2024-03-07T07:15:39.277Z,-0.92
2024-03-07T07:18:08.803Z,-0.84
2024-03-07T07:20:36.433Z,-0.73
2024-03-07T07:23:04.847Z,-0.63
2024-03-07T07:25:35.222Z,-0.59
2024-03-07T07:28:05.340Z,-0.59
2024-03-07T07:30:33.147Z,-0.60
2024-03-07T07:33:00.610Z,-0.66
2024-03-07T07:35:28.234Z,-0.68
2024-03-07T07:37:57.496Z,-0.67
2024-03-07T07:40:26.375Z,-0.64
2024-03-07T07:42:54.142Z,-0.68
2024-03-07T07:45:22.681Z,-0.74
2024-03-07T07:47:51.392Z,-0.74
2024-03-07T07:50:19.842Z,-0.72
2024-03-07T07:52:51.329Z,-0.67
2024-03-07T07:55:18.834Z,-0.61
2024-03-07T07:57:46.755Z,-0.57
2024-03-07T08:00:25.165Z,-0.51
2024-03-07T08:02:54.308Z,-0.47
2024-03-07T08:05:24.538Z,-0.45
2024-03-07T08:07:52.782Z,-0.43
2024-03-07T08:10:20.687Z,-0.41
2024-03-07T08:12:48.270Z,-0.39
2024-03-07T08:15:15.780Z,-0.35
2024-03-07T08:17:47.735Z,-0.32
2024-03-07T08:20:19.737Z,-0.30
2024-03-07T08:22:47.363Z,-0.30
2024-03-07T08:25:15.475Z,-0.34
2024-03-07T08:27:43.996Z,-0.35
2024-03-07T08:30:15.461Z,-0.35
2024-03-07T08:32:44.261Z,-0.35
2024-03-07T08:35:12.848Z,-0.34
2024-03-07T08:37:40.939Z,-0.32
2024-03-07T08:40:11.177Z,-0.30
2024-03-07T08:42:38.887Z,-0.29
2024-03-07T08:45:06.761Z,-0.31
2024-03-07T08:47:35.027Z,-0.39
2024-03-07T08:50:02.564Z,-0.52
2024-03-07T08:52:30.027Z,-0.57
2024-03-07T08:54:57.315Z,-0.53
2024-03-07T08:57:24.659Z,-0.46
2024-03-07T08:59:51.995Z,-0.42
2024-03-07T09:02:19.338Z,-0.43
2024-03-07T09:04:47.315Z,-0.44
2024-03-07T09:07:15.953Z,-0.44
2024-03-07T09:09:46.809Z,-0.43
2024-03-07T09:12:14.671Z,-0.42
2024-03-07T09:14:44.993Z,-0.46
2024-03-07T09:17:14.612Z,-0.48
2024-03-07T09:19:42.649Z,-0.47
2024-03-07T09:22:10.307Z,-0.47
2024-03-07T09:24:38.868Z,-0.44
2024-03-07T09:27:06.845Z,-0.40
2024-03-07T09:29:34.516Z,-0.37
2024-03-07T09:32:03.745Z,-0.35
2024-03-07T09:34:32.094Z,-0.31
2024-03-07T09:37:00.232Z,-0.27
2024-03-07T09:39:28.168Z,-0.23
2024-03-07T09:41:56.262Z,-0.18
2024-03-07T09:44:24.226Z,-0.19
2024-03-07T09:46:52.235Z,-0.18
2024-03-07T09:49:19.526Z,-0.11
2024-03-07T09:51:48.088Z,-0.08
2024-03-07T09:54:16.021Z,-0.07
2024-03-07T09:56:43.397Z,-0.07
2024-03-07T09:59:13.305Z,-0.09
2024-03-07T10:01:40.809Z,-0.11
2024-03-07T10:04:12.996Z,-0.12
2024-03-07T10:06:41.004Z,-0.10
2024-03-07T10:09:08.578Z,-0.06
2024-03-07T10:11:36.549Z,-0.03
2024-03-07T10:14:08.429Z,0.02
2024-03-07T10:16:35.750Z,0.08
2024-03-07T10:19:05.901Z,0.12
2024-03-07T10:21:34.958Z,0.14
2024-03-07T10:24:09.250Z,0.18
2024-03-07T10:26:39.079Z,0.22
2024-03-07T10:29:07.024Z,0.25
2024-03-07T10:31:37.612Z,0.28
2024-03-07T10:34:09.308Z,0.31
2024-03-07T10:36:36.937Z,0.33
2024-03-07T10:39:13.313Z,0.37
2024-03-07T10:41:45.877Z,0.37
2024-03-07T10:44:33.958Z,0.39
2024-03-07T10:47:04.517Z,0.42
2024-03-07T10:49:34.928Z,0.39
2024-03-07T10:52:14.410Z,0.33
2024-03-07T10:54:50.313Z,0.31
2024-03-07T10:57:33.541Z,0.32
2024-03-07T11:00:34.377Z,0.32
2024-03-07T11:03:03.641Z,0.29
2024-03-07T11:05:31.087Z,0.29
2024-03-07T11:08:00.290Z,0.31
2024-03-07T11:10:27.661Z,0.34
2024-03-07T11:12:54.969Z,0.34
2024-03-07T11:15:22.220Z,0.27
2024-03-07T11:17:55.495Z,0.24
2024-03-07T11:20:27.031Z,0.23
2024-03-07T11:22:57.465Z,0.18
2024-03-07T11:25:27.469Z,0.17
2024-03-07T11:27:59.575Z,0.18
2024-03-07T11:30:26.973Z,0.19
2024-03-07T11:32:55.819Z,0.17
2024-03-07T11:35:38.707Z,0.15
2024-03-07T11:38:07.979Z,0.15
2024-03-07T11:40:35.412Z,0.17
2024-03-07T11:43:06.223Z,0.19
2024-03-07T11:45:46.231Z,0.22
2024-03-07T11:48:14.349Z,0.26
2024-03-07T11:50:42.266Z,0.27
2024-03-07T11:53:10.227Z,0.29
2024-03-07T11:55:46.614Z,0.29
2024-03-07T11:58:17.807Z,0.28
2024-03-07T12:00:48.867Z,0.31
2024-03-07T12:03:18.657Z,0.37
2024-03-07T12:05:46.429Z,0.42
2024-03-07T12:08:13.785Z,0.45
2024-03-07T12:10:48.461Z,0.46
2024-03-07T12:13:17.135Z,0.37
2024-03-07T12:15:44.676Z,0.30
2024-03-07T12:18:12.209Z,0.33
2024-03-07T12:20:40.303Z,0.38
2024-03-07T12:23:09.798Z,0.42
2024-03-07T12:25:37.503Z,0.42
2024-03-07T12:28:31.059Z,0.46
2024-03-07T12:30:58.573Z,0.54
2024-03-07T12:33:28.990Z,0.60
2024-03-07T12:36:07.911Z,0.68
2024-03-07T12:38:39.742Z,0.69
2024-03-07T12:41:18.258Z,0.67
2024-03-07T12:43:49.378Z,0.69
2024-03-07T12:46:18.591Z,0.69
2024-03-07T12:48:47.331Z,0.66
2024-03-07T12:51:19.814Z,0.65
2024-03-07T12:53:49.081Z,0.61
2024-03-07T12:56:20.210Z,0.60
2024-03-07T12:58:50.959Z,0.62
2024-03-07T13:01:20.906Z,0.67
2024-03-07T13:03:49.153Z,0.69
2024-03-07T13:06:20.922Z,0.70
2024-03-07T13:08:48.615Z,0.73
2024-03-07T13:11:15.976Z,0.75
2024-03-07T13:13:43.543Z,0.80
2024-03-07T13:16:12.647Z,0.78
2024-03-07T13:18:40.337Z,0.77
2024-03-07T13:21:08.871Z,0.81
2024-03-07T13:23:37.745Z,0.84
2024-03-07T13:26:09.986Z,0.84
2024-03-07T13:28:37.578Z,0.83
2024-03-07T13:31:05.138Z,0.76
2024-03-07T13:33:32.646Z,0.70
2024-03-07T13:36:02.428Z,0.65
2024-03-07T13:38:31.006Z,0.66
2024-03-07T13:40:58.638Z,0.68
2024-03-07T13:43:26.076Z,0.71
2024-03-07T13:45:54.012Z,0.67
2024-03-07T13:48:21.936Z,0.61
2024-03-07T13:50:58.990Z,0.59
2024-03-07T13:53:28.906Z,0.63
2024-03-07T13:56:13.290Z,0.65
2024-03-07T13:58:52.028Z,0.66
2024-03-07T14:01:34.404Z,0.67
2024-03-07T14:04:16.982Z,0.71
2024-03-07T14:06:47.478Z,0.73
2024-03-07T14:09:33.369Z,0.72
2024-03-07T14:12:35.503Z,0.66
2024-03-07T14:15:26.045Z,0.68
2024-03-07T14:18:20.293Z,0.71
2024-03-07T14:21:19.368Z,0.74
2024-03-07T14:23:47.163Z,0.67
2024-03-07T14:26:36.792Z,0.59
2024-03-07T14:29:15.233Z,0.55
2024-03-07T14:31:45.557Z,0.53
2024-03-07T14:34:30.657Z,0.53
2024-03-07T14:37:05.113Z,0.55
2024-03-07T14:39:36.393Z,0.57
2024-03-07T14:42:04.677Z,0.59
2024-03-07T14:44:32.348Z,0.61
2024-03-07T14:47:02.916Z,0.62
2024-03-07T14:49:30.168Z,0.64
2024-03-07T14:52:00.726Z,0.66
2024-03-07T14:54:29.149Z,0.68
2024-03-07T14:56:56.704Z,0.69
2024-03-07T14:59:24.517Z,0.70
2024-03-07T15:01:52.078Z,0.70
2024-03-07T15:04:19.415Z,0.70
2024-03-07T15:06:47.236Z,0.70
2024-03-07T15:09:15.164Z,0.70
2024-03-07T15:11:43.845Z,0.70
2024-03-07T15:14:11.836Z,0.68
2024-03-07T15:16:40.043Z,0.66
2024-03-07T15:19:08.955Z,0.65
2024-03-07T15:21:37.159Z,0.64
2024-03-07T15:24:05.099Z,0.63
2024-03-07T15:26:32.698Z,0.61
2024-03-07T15:29:01.951Z,0.60
2024-03-07T15:31:29.696Z,0.58
2024-03-07T15:33:57.033Z,0.54
2024-03-07T15:36:24.621Z,0.51
2024-03-07T15:38:52.427Z,0.47
2024-03-07T15:41:21.118Z,0.41
2024-03-07T15:43:49.088Z,0.37
2024-03-07T15:46:18.358Z,0.31
2024-03-07T15:48:46.851Z,0.26
2024-03-07T15:51:15.792Z,0.20
2024-03-07T15:53:44.106Z,0.15
2024-03-07T15:56:11.694Z,0.10
2024-03-07T15:58:39.038Z,0.06
2024-03-07T16:01:07.310Z,0.01
2024-03-07T16:03:34.658Z,-0.03
2024-03-07T16:06:02.984Z,-0.07
2024-03-07T16:08:30.466Z,-0.13
2024-03-07T16:10:58.058Z,-0.18
2024-03-07T16:13:25.657Z,-0.22
2024-03-07T16:17:00.377Z,-0.27
2024-03-07T16:19:27.860Z,-0.32
2024-03-07T16:21:55.300Z,-0.35
2024-03-07T16:24:22.585Z,-0.39
2024-03-07T16:26:50.520Z,-0.44
2024-03-07T16:29:18.043Z,-0.48
2024-03-07T16:31:46.255Z,-0.52
2024-03-07T16:34:14.311Z,-0.56
2024-03-07T16:36:41.684Z,-0.61
2024-03-07T16:39:13.311Z,-0.65
2024-03-07T16:41:41.761Z,-0.69
2024-03-07T16:44:09.774Z,-0.72
2024-03-07T16:46:37.969Z,-0.76
2024-03-07T16:49:09.374Z,-0.78
2024-03-07T16:51:37.007Z,-0.82
2024-03-07T16:54:06.813Z,-0.85
2024-03-07T16:56:38.406Z,-0.90
2024-03-07T16:59:06.154Z,-0.94
2024-03-07T17:01:33.651Z,-0.98
2024-03-07T17:04:01.311Z,-1.02
2024-03-07T17:06:28.689Z,-1.05
2024-03-07T17:08:55.977Z,-1.07
2024-03-07T17:11:23.448Z,-1.10
2024-03-07T17:13:51.000Z,-1.10
2024-03-07T17:16:18.353Z,-1.11
2024-03-07T17:18:45.717Z,-1.10
2024-03-07T17:21:14.739Z,-1.10
2024-03-07T17:23:42.374Z,-1.10
2024-03-07T17:26:09.654Z,-1.10
2024-03-07T17:28:36.913Z,-1.11
2024-03-07T17:31:06.760Z,-1.13
2024-03-07T17:33:34.202Z,-1.16
2024-03-07T17:36:07.269Z,-1.19
2024-03-07T17:38:34.977Z,-1.21
2024-03-07T17:41:02.449Z,-1.24
2024-03-07T17:43:29.728Z,-1.27
2024-03-07T17:46:00.507Z,-1.30
2024-03-07T17:48:29.752Z,-1.34
2024-03-07T17:50:58.962Z,-1.37
2024-03-07T17:53:27.307Z,-1.41
2024-03-07T17:55:56.879Z,-1.45
2024-03-07T17:58:25.172Z,-1.49
2024-03-07T18:00:54.418Z,-1.53
2024-03-07T18:03:21.900Z,-1.57
2024-03-07T18:05:53.133Z,-1.61
2024-03-07T18:08:34.652Z,-1.65
2024-03-07T18:11:14.542Z,-1.69
2024-03-07T18:13:43.109Z,-1.73
2024-03-07T18:16:11.469Z,-1.77
2024-03-07T18:18:40.209Z,-1.81
2024-03-07T18:21:10.297Z,-1.86
2024-03-07T18:23:37.951Z,-1.93
2024-03-07T18:26:08.698Z,-2.05
2024-03-07T18:28:37.494Z,-2.14
2024-03-07T18:31:13.592Z,-2.17
2024-03-07T18:33:44.057Z,-2.17
2024-03-07T18:36:14.892Z,-2.13
2024-03-07T18:38:42.644Z,-2.10
2024-03-07T18:41:11.261Z,-2.06
2024-03-07T18:43:40.573Z,-2.03
2024-03-07T18:46:09.564Z,-2.02
2024-03-07T18:48:37.875Z,-2.01
2024-03-07T18:51:07.149Z,-2.02
2024-03-07T18:53:35.940Z,-2.05
2024-03-07T18:56:12.656Z,-2.09
2024-03-07T18:58:40.330Z,-2.17
2024-03-07T19:01:08.759Z,-2.23
2024-03-07T19:03:36.339Z,-2.27
2024-03-07T19:06:04.204Z,-2.31
2024-03-07T19:08:32.018Z,-2.36
2024-03-07T19:10:59.943Z,-2.41
2024-03-07T19:13:31.072Z,-2.45
2024-03-07T19:16:02.229Z,-2.49
2024-03-07T19:18:29.852Z,-2.53
2024-03-07T19:20:57.395Z,-2.58
2024-03-07T19:23:26.105Z,-2.62
2024-03-07T19:25:54.142Z,-2.65
2024-03-07T19:28:21.665Z,-2.69
2024-03-07T19:30:51.516Z,-2.75
2024-03-07T19:33:19.882Z,-2.84
2024-03-07T19:35:47.693Z,-2.89
2024-03-07T19:38:15.246Z,-2.91
2024-03-07T19:40:42.816Z,-2.91
2024-03-07T19:43:10.096Z,-2.89
2024-03-07T19:45:41.583Z,-2.85
2024-03-07T19:48:12.620Z,-2.83
2024-03-07T19:50:40.765Z,-2.86
2024-03-07T19:53:14.393Z,-2.90
2024-03-07T19:55:43.191Z,-2.92
2024-03-07T19:58:10.640Z,-2.93
2024-03-07T20:00:38.094Z,-2.94
2024-03-07T20:03:08.328Z,-2.98
2024-03-07T20:05:35.887Z,-3.07
2024-03-07T20:08:07.389Z,-3.19
2024-03-07T20:10:34.887Z,-3.29
2024-03-07T20:13:03.033Z,-3.33
2024-03-07T20:15:30.453Z,-3.36
2024-03-07T20:17:58.065Z,-3.42
2024-03-07T20:20:25.764Z,-3.49
2024-03-07T20:22:56.010Z,-3.52
2024-03-07T20:25:23.493Z,-3.54
2024-03-07T20:27:53.991Z,-3.55
2024-03-07T20:30:21.307Z,-3.57
2024-03-07T20:32:49.510Z,-3.62
2024-03-07T20:35:19.582Z,-3.67
2024-03-07T20:37:50.294Z,-3.71
2024-03-07T20:40:19.070Z,-3.75
2024-03-07T20:42:46.524Z,-3.74
2024-03-07T20:45:16.203Z,-3.69
2024-03-07T20:47:49.409Z,-3.64
2024-03-07T20:50:18.216Z,-3.61
2024-03-07T20:52:46.188Z,-3.59
2024-03-07T20:55:18.357Z,-3.59
2024-03-07T20:57:53.436Z,-3.61
2024-03-07T21:00:41.806Z,-3.62
2024-03-07T21:03:09.414Z,-3.66
2024-03-07T21:05:38.515Z,-3.70
2024-03-07T21:08:06.545Z,-3.73
2024-03-07T21:10:36.294Z,-3.79
2024-03-07T21:13:04.170Z,-3.88
2024-03-07T21:15:31.439Z,-3.92
2024-03-07T21:17:59.457Z,-3.94
2024-03-07T21:20:29.233Z,-3.95
2024-03-07T21:22:56.584Z,-3.99
2024-03-07T21:25:23.960Z,-4.05
2024-03-07T21:27:51.671Z,-4.08
2024-03-07T21:30:22.168Z,-4.13
2024-03-07T21:32:49.710Z,-4.16
2024-03-07T21:35:17.520Z,-4.16
2024-03-07T21:37:45.358Z,-4.13
2024-03-07T21:40:17.514Z,-4.09
2024-03-07T21:42:51.837Z,-4.04
2024-03-07T21:45:19.688Z,-3.99
2024-03-07T21:47:47.870Z,-3.98
2024-03-07T21:50:16.980Z,-3.96
2024-03-07T21:52:46.555Z,-3.93
2024-03-07T21:55:14.130Z,-3.91
2024-03-07T21:57:44.492Z,-3.90
2024-03-07T22:00:19.968Z,-3.89
2024-03-07T22:02:57.827Z,-3.91
2024-03-07T22:05:30.111Z,-3.94
2024-03-07T22:07:59.568Z,-3.95
2024-03-07T22:10:28.585Z,-4.01
2024-03-07T22:12:56.687Z,-4.06
2024-03-07T22:15:24.590Z,-4.10
2024-03-07T22:17:54.335Z,-4.16
2024-03-07T22:20:24.709Z,-4.20
2024-03-07T22:22:53.071Z,-4.28
2024-03-07T22:25:22.974Z,-4.40
2024-03-07T22:27:51.940Z,-4.54
2024-03-07T22:30:23.485Z,-4.67
2024-03-07T22:32:53.747Z,-4.73
2024-03-07T22:35:21.676Z,-4.74
2024-03-07T22:37:52.316Z,-4.75
2024-03-07T22:40:29.109Z,-4.73
2024-03-07T22:42:56.440Z,-4.68
2024-03-07T22:45:24.228Z,-4.66
2024-03-07T22:47:53.687Z,-4.61
2024-03-07T22:50:28.378Z,-4.54
2024-03-07T22:53:02.982Z,-4.48
2024-03-07T22:55:31.439Z,-4.43
2024-03-07T22:57:59.423Z,-4.39
2024-03-07T23:00:29.118Z,-4.37
2024-03-07T23:03:01.439Z,-4.41
2024-03-07T23:05:30.451Z,-4.47
2024-03-07T23:08:00.772Z,-4.54
2024-03-07T23:10:28.981Z,-4.57
2024-03-07T23:12:58.366Z,-4.60
2024-03-07T23:15:28.457Z,-4.71
2024-03-07T23:17:56.474Z,-4.82
2024-03-07T23:20:26.342Z,-4.91
2024-03-07T23:22:56.178Z,-4.94
2024-03-07T23:25:24.214Z,-4.94
2024-03-07T23:27:53.591Z,-4.93
2024-03-07T23:30:23.405Z,-4.91
2024-03-07T23:32:52.629Z,-4.89
2024-03-07T23:35:20.230Z,-4.89
2024-03-07T23:37:47.870Z,-4.91
2024-03-07T23:40:15.649Z,-4.93
2024-03-07T23:42:43.893Z,-4.97
2024-03-07T23:45:13.681Z,-4.98
2024-03-07T23:47:42.963Z,-4.96
2024-03-07T23:50:14.296Z,-4.92
2024-03-07T23:52:42.563Z,-4.87
2024-03-07T23:55:13.684Z,-4.83
2024-03-07T23:57:43.548Z,-4.82
